Time;durP1;ratioP1;P1;durP2;ratioP2;P2;SDS_P1;SDS_P2;PMS_P1;PMS_P2;Temp;Humidity;BMP_temperature;BMP_pressure;BME280_temperature;BME280_humidity;BME280_pressure;Samples;Min_cycle;Max_cycle;Signal;HPM_P1;HPM_P2
2022/12/04 00:02:02;;;;;;;14.90;11.40;;;;;;;;;;108294;1275;25298;-34
2022/12/04 00:04:34;;;;;;;15.50;11.50;;;;;;;;;;108354;1269;22558;-34
2022/12/04 00:07:05;;;;;;;14.90;11.90;;;;;;;;;;108327;1276;25411;-35
2022/12/04 00:09:36;;;;;;;15.40;11.30;;;;;;;;;;108333;1275;22574;-35
2022/12/04 00:12:09;;;;;;;15.60;11.60;;;;;;;;;;108274;1270;22607;-35
2022/12/04 00:14:40;;;;;;;15.60;11.20;;;;;;;;;;108328;1274;22568;-35
2022/12/04 00:17:12;;;;;;;15.20;11.50;;;;;;;;;;108312;1271;22572;-35
2022/12/04 00:19:43;;;;;;;14.80;11.00;;;;;;;;;;108295;1267;22580;-35
2022/12/04 00:22:14;;;;;;;16.10;11.30;;;;;;;;;;108310;1275;22556;-35
2022/12/04 00:24:45;;;;;;;13.90;10.80;;;;;;;;;;108326;1275;22558;-35
2022/12/04 00:27:16;;;;;;;15.20;10.80;;;;;;;;;;108336;1269;24918;-35
2022/12/04 00:29:47;;;;;;;13.70;10.70;;;;;;;;;;108338;1269;22732;-34
2022/12/04 00:32:20;;;;;;;14.90;10.80;;;;;;;;;;108262;1269;25409;-34
2022/12/04 00:34:53;;;;;;;13.20;10.30;;;;;;;;;;108329;1274;24889;-35
2022/12/04 00:37:22;;;;;;;;;;;;;;;;;;108313;1274;22576;-36
2022/12/04 00:39:53;;;;;;;14.20;10.60;;;;;;;;;;108311;1274;22631;-35
2022/12/04 00:42:24;;;;;;;14.60;10.80;;;;;;;;;;108327;1272;22568;-35
2022/12/04 00:44:58;;;;;;;15.20;11.30;;;;;;;;;;108345;1269;23865;-35
2022/12/04 00:47:29;;;;;;;13.20;10.30;;;;;;;;;;108344;1269;22564;-35
2022/12/04 00:50:00;;;;;;;13.60;10.60;;;;;;;;;;108343;1272;22582;-35
2022/12/04 00:52:31;;;;;;;15.10;11.10;;;;;;;;;;108296;1275;22592;-35
2022/12/04 00:55:01;;;;;;;14.70;11.20;;;;;;;;;;108317;1268;22570;-35
2022/12/04 00:57:32;;;;;;;14.50;10.10;;;;;;;;;;108339;1272;22571;-35
2022/12/04 01:00:04;;;;;;;14.10;10.40;;;;;;;;;;108310;1269;24551;-35
2022/12/04 01:02:35;;;;;;;13.50;10.00;;;;;;;;;;108304;1272;24396;-36
2022/12/04 01:05:14;;;;;;;15.10;10.20;;;;;;;;;;108329;1269;22879;-35
2022/12/04 01:07:45;;;;;;;13.90;10.10;;;;;;;;;;108337;1269;22559;-34
2022/12/04 01:10:19;;;;;;;14.30;11.00;;;;;;;;;;108349;1268;22569;-35
2022/12/04 01:12:53;;;;;;;16.80;10.50;;;;;;;;;;108277;1275;22553;-35
2022/12/04 01:15:24;;;;;;;13.10;10.10;;;;;;;;;;108356;1269;22576;-35
2022/12/04 01:17:55;;;;;;;14.20;10.00;;;;;;;;;;108347;1269;22714;-35
2022/12/04 01:20:28;;;;;;;14.50;10.40;;;;;;;;;;108311;1275;22572;-35
2022/12/04 01:22:59;;;;;;;12.50;10.30;;;;;;;;;;108307;1269;22558;-35
2022/12/04 01:25:31;;;;;;;14.80;9.90;;;;;;;;;;108260;1272;124518;-28
2022/12/04 01:28:02;;;;;;;13.30;9.70;;;;;;;;;;108397;1272;22573;-28
2022/12/04 01:30:34;;;;;;;13.10;10.00;;;;;;;;;;108341;1269;22568;-28
2022/12/04 01:33:07;;;;;;;13.60;10.50;;;;;;;;;;108300;1275;22565;-28
2022/12/04 01:35:40;;;;;;;13.30;10.10;;;;;;;;;;108369;1268;22565;-28
2022/12/04 01:38:11;;;;;;;13.00;10.00;;;;;;;;;;108383;1268;22710;-28
2022/12/04 01:40:46;;;;;;;12.60;9.80;;;;;;;;;;108366;1269;22640;-28
2022/12/04 01:43:18;;;;;;;14.10;10.40;;;;;;;;;;108330;1272;22568;-28
2022/12/04 01:45:50;;;;;;;13.40;9.40;;;;;;;;;;108365;1269;22582;-28
2022/12/04 01:48:30;;;;;;;12.60;9.50;;;;;;;;;;108374;1273;22571;-28
2022/12/04 01:51:07;;;;;;;14.10;10.30;;;;;;;;;;108379;1269;24457;-28
2022/12/04 01:53:40;;;;;;;12.50;9.30;;;;;;;;;;108322;1275;24459;-28
2022/12/04 01:56:11;;;;;;;13.50;9.90;;;;;;;;;;108345;1269;25655;-28
2022/12/04 01:58:44;;;;;;;12.70;9.60;;;;;;;;;;108376;1269;22584;-28
2022/12/04 02:01:14;;;;;;;;;;;;;;;;;;108336;1269;24442;-29
2022/12/04 02:03:45;;;;;;;14.10;10.10;;;;;;;;;;108301;1269;22572;-29
2022/12/04 02:06:15;;;;;;;13.00;9.90;;;;;;;;;;108364;1275;22579;-29
2022/12/04 02:08:47;;;;;;;12.80;9.80;;;;;;;;;;108366;1269;22557;-29
2022/12/04 02:11:26;;;;;;;13.30;9.70;;;;;;;;;;108349;1269;24637;-29
2022/12/04 02:14:07;;;;;;;13.40;9.50;;;;;;;;;;108325;1268;25485;-29
2022/12/04 02:16:44;;;;;;;13.50;10.20;;;;;;;;;;108370;1269;22561;-29
2022/12/04 02:19:29;;;;;;;12.50;9.10;;;;;;;;;;108372;1272;22712;-31
2022/12/04 02:22:01;;;;;;;12.60;9.10;;;;;;;;;;108354;1269;23288;-31
2022/12/04 02:24:41;;;;;;;12.80;9.60;;;;;;;;;;108305;1268;23303;-31
2022/12/04 02:27:25;;;;;;;12.70;9.10;;;;;;;;;;108349;1269;24889;-32
2022/12/04 02:30:02;;;;;;;13.60;9.80;;;;;;;;;;108361;1269;22567;-32
2022/12/04 02:32:38;;;;;;;13.10;9.00;;;;;;;;;;108366;1272;24414;-31
2022/12/04 02:35:14;;;;;;;12.90;9.30;;;;;;;;;;108326;1272;24908;-30
2022/12/04 02:37:47;;;;;;;13.20;9.60;;;;;;;;;;108379;1272;25696;-30
2022/12/04 02:40:30;;;;;;;12.40;9.20;;;;;;;;;;108364;1268;25681;-30
2022/12/04 02:43:11;;;;;;;12.20;8.80;;;;;;;;;;108336;1269;25227;-31
2022/12/04 02:45:45;;;;;;;11.80;8.40;;;;;;;;;;108341;1268;22559;-31
2022/12/04 02:48:22;;;;;;;12.20;8.90;;;;;;;;;;108369;1269;22620;-32
2022/12/04 02:50:58;;;;;;;11.80;9.20;;;;;;;;;;108383;1269;25268;-28
2022/12/04 02:53:32;;;;;;;12.20;8.60;;;;;;;;;;108343;1269;22591;-28
2022/12/04 02:56:09;;;;;;;11.90;9.30;;;;;;;;;;108342;1269;22623;-28
2022/12/04 02:58:47;;;;;;;12.40;9.00;;;;;;;;;;108331;1268;22595;-28
2022/12/04 03:01:24;;;;;;;11.70;9.30;;;;;;;;;;108374;1269;22576;-28
2022/12/04 03:03:57;;;;;;;12.50;8.80;;;;;;;;;;108198;1275;22560;-28
2022/12/04 03:06:30;;;;;;;11.70;9.20;;;;;;;;;;108341;1268;25272;-28
2022/12/04 03:09:07;;;;;;;12.20;9.10;;;;;;;;;;108362;1262;25306;-28
2022/12/04 03:11:43;;;;;;;12.20;8.70;;;;;;;;;;108341;1269;25216;-28
2022/12/04 03:14:16;;;;;;;11.80;9.00;;;;;;;;;;108334;1275;22572;-29
2022/12/04 03:16:49;;;;;;;11.80;8.50;;;;;;;;;;108359;1269;22595;-29
2022/12/04 03:19:24;;;;;;;11.70;8.50;;;;;;;;;;108342;1269;22577;-28
2022/12/04 03:21:59;;;;;;;10.70;7.80;;;;;;;;;;108367;1269;25346;-29
2022/12/04 03:24:33;;;;;;;11.30;8.60;;;;;;;;;;108328;1269;22606;-29
2022/12/04 03:27:08;;;;;;;11.70;8.20;;;;;;;;;;108337;1269;22565;-29
2022/12/04 03:29:42;;;;;;;11.00;8.40;;;;;;;;;;108371;1270;25333;-29
2022/12/04 03:32:18;;;;;;;11.30;8.30;;;;;;;;;;108378;1268;22568;-29
2022/12/04 03:34:54;;;;;;;11.20;7.70;;;;;;;;;;108334;1269;22582;-29
2022/12/04 03:37:34;;;;;;;11.90;8.50;;;;;;;;;;108378;1272;22571;-29
2022/12/04 03:40:16;;;;;;;11.50;8.20;;;;;;;;;;108346;1269;22561;-29
2022/12/04 03:42:52;;;;;;;11.60;8.40;;;;;;;;;;108325;1275;23457;-29
2022/12/04 03:45:26;;;;;;;11.40;8.40;;;;;;;;;;108351;1268;22596;-32
2022/12/04 03:48:01;;;;;;;11.00;8.40;;;;;;;;;;108342;1269;22564;-32
2022/12/04 03:50:36;;;;;;;11.70;8.10;;;;;;;;;;108367;1272;22589;-33
2022/12/04 03:53:13;;;;;;;10.80;8.30;;;;;;;;;;108336;1271;22584;-29
2022/12/04 03:55:49;;;;;;;10.80;7.90;;;;;;;;;;108300;1275;22555;-29
2022/12/04 03:58:24;;;;;;;10.80;7.70;;;;;;;;;;108357;1272;22555;-29
2022/12/04 04:01:00;;;;;;;9.70;7.40;;;;;;;;;;108360;1269;22565;-29
2022/12/04 04:03:37;;;;;;;11.00;8.10;;;;;;;;;;108358;1269;22587;-29
2022/12/04 04:06:11;;;;;;;11.50;8.10;;;;;;;;;;108329;1268;22579;-28
2022/12/04 04:08:48;;;;;;;9.70;7.50;;;;;;;;;;108388;1272;22564;-30
2022/12/04 04:11:22;;;;;;;9.90;7.50;;;;;;;;;;108330;1266;22565;-32
2022/12/04 04:25:24;;;;;;;9.70;7.40;;;;;;;;;;108322;1269;22553;-31
2022/12/04 04:27:57;;;;;;;11.10;7.80;;;;;;;;;;108366;1269;22748;-30
2022/12/04 04:30:28;;;;;;;9.90;7.50;;;;;;;;;;108352;1268;22549;-30
2022/12/04 04:33:02;;;;;;;10.20;7.50;;;;;;;;;;108344;1269;22574;-31
2022/12/04 04:35:37;;;;;;;10.40;7.50;;;;;;;;;;108343;1269;24460;-31
2022/12/04 04:38:17;;;;;;;10.30;7.80;;;;;;;;;;108337;1262;22581;-31
2022/12/04 04:40:58;;;;;;;10.20;7.10;;;;;;;;;;108325;1269;22558;-31
2022/12/04 04:43:33;;;;;;;10.10;7.30;;;;;;;;;;108360;1268;22561;-31
2022/12/04 04:46:08;;;;;;;10.40;7.50;;;;;;;;;;108342;1269;22556;-31
2022/12/04 04:48:42;;;;;;;10.70;7.50;;;;;;;;;;108350;1269;25815;-31
2022/12/04 04:51:14;;;;;;;9.60;6.70;;;;;;;;;;108370;1274;22601;-31
2022/12/04 04:53:50;;;;;;;9.90;7.00;;;;;;;;;;108372;1269;22563;-30
2022/12/04 04:56:21;;;;;;;11.30;7.70;;;;;;;;;;108329;1269;24495;-31
2022/12/04 04:58:52;;;;;;;9.20;6.20;;;;;;;;;;108367;1269;22590;-31
2022/12/04 05:01:26;;;;;;;9.90;6.90;;;;;;;;;;108336;1269;22564;-31
2022/12/04 05:03:57;;;;;;;9.90;7.20;;;;;;;;;;108339;1272;24880;-30
2022/12/04 05:06:28;;;;;;;9.80;6.90;;;;;;;;;;108320;1269;22553;-31
2022/12/04 05:08:59;;;;;;;9.30;7.10;;;;;;;;;;108361;1269;22555;-31
2022/12/04 05:11:32;;;;;;;9.40;6.90;;;;;;;;;;108359;1269;22578;-31
2022/12/04 05:14:04;;;;;;;9.60;6.60;;;;;;;;;;108344;1269;22555;-31
2022/12/04 05:16:35;;;;;;;10.20;7.00;;;;;;;;;;108309;1269;25694;-32
2022/12/04 05:22:03;;;;;;;9.40;6.80;;;;;;;;;;108187;1273;22559;-31
2022/12/04 05:24:34;;;;;;;8.70;6.50;;;;;;;;;;108338;1268;22557;-30
2022/12/04 05:27:05;;;;;;;9.30;6.80;;;;;;;;;;108327;1272;25317;-32
2022/12/04 05:29:36;;;;;;;9.70;6.60;;;;;;;;;;108341;1269;22558;-32
2022/12/04 05:32:09;;;;;;;9.80;6.80;;;;;;;;;;108386;1269;22571;-32
2022/12/04 05:34:40;;;;;;;10.20;7.20;;;;;;;;;;108344;1272;22877;-32
2022/12/04 05:37:11;;;;;;;9.50;7.00;;;;;;;;;;108315;1269;22708;-32
2022/12/04 05:39:42;;;;;;;9.60;7.00;;;;;;;;;;108332;1269;22581;-30
2022/12/04 05:42:15;;;;;;;10.00;7.00;;;;;;;;;;108329;1268;22567;-30
2022/12/04 05:44:47;;;;;;;10.00;7.00;;;;;;;;;;108359;1269;22567;-31
2022/12/04 05:47:18;;;;;;;8.70;6.60;;;;;;;;;;108317;1272;24476;-30
2022/12/04 05:49:49;;;;;;;10.20;7.20;;;;;;;;;;108323;1271;25818;-31
2022/12/04 05:52:22;;;;;;;9.00;6.60;;;;;;;;;;108334;1269;22556;-31
2022/12/04 05:54:53;;;;;;;9.60;6.90;;;;;;;;;;108337;1267;22652;-31
2022/12/04 05:57:28;;;;;;;10.40;7.40;;;;;;;;;;108295;1269;22570;-31
2022/12/04 05:59:58;;;;;;;9.20;6.60;;;;;;;;;;108381;1268;24573;-30
2022/12/04 06:02:29;;;;;;;10.00;6.40;;;;;;;;;;108403;1269;22580;-31
2022/12/04 06:05:00;;;;;;;8.60;6.60;;;;;;;;;;108344;1266;25342;-31
2022/12/04 06:07:31;;;;;;;10.70;7.10;;;;;;;;;;108335;1272;22672;-31
2022/12/04 06:10:02;;;;;;;10.60;7.10;;;;;;;;;;108330;1269;22581;-31
2022/12/04 06:12:32;;;;;;;9.10;6.50;;;;;;;;;;108366;1269;22565;-31
2022/12/04 06:15:04;;;;;;;10.20;6.80;;;;;;;;;;108367;1268;22577;-31
2022/12/04 06:17:35;;;;;;;9.40;6.70;;;;;;;;;;108388;1268;22630;-31
2022/12/04 06:20:10;;;;;;;9.10;6.10;;;;;;;;;;108310;1268;24447;-31
2022/12/04 06:22:41;;;;;;;9.80;7.00;;;;;;;;;;108366;1268;22631;-31
2022/12/04 06:25:14;;;;;;;8.30;6.10;;;;;;;;;;108328;1267;22568;-31
2022/12/04 06:27:45;;;;;;;9.20;6.70;;;;;;;;;;108327;1268;22574;-31
2022/12/04 06:30:18;;;;;;;8.70;6.20;;;;;;;;;;108315;1269;22595;-31
2022/12/04 06:32:51;;;;;;;9.80;6.80;;;;;;;;;;108329;1268;22566;-31
2022/12/04 06:35:22;;;;;;;8.90;6.30;;;;;;;;;;108386;1268;22559;-31
2022/12/04 06:37:53;;;;;;;8.90;6.20;;;;;;;;;;108365;1269;22592;-30
2022/12/04 06:40:24;;;;;;;9.50;6.60;;;;;;;;;;108347;1268;22575;-31
2022/12/04 06:42:57;;;;;;;9.30;6.30;;;;;;;;;;108385;1268;22581;-30
2022/12/04 06:45:28;;;;;;;8.80;6.50;;;;;;;;;;108232;1269;23883;-33
2022/12/04 06:48:01;;;;;;;8.60;6.10;;;;;;;;;;108348;1269;22581;-31
2022/12/04 06:50:32;;;;;;;8.20;6.20;;;;;;;;;;108304;1268;22599;-32
2022/12/04 06:53:03;;;;;;;9.50;7.00;;;;;;;;;;108355;1268;22561;-32
2022/12/04 06:55:34;;;;;;;9.60;6.30;;;;;;;;;;108341;1268;23005;-31
2022/12/04 06:58:06;;;;;;;9.00;6.10;;;;;;;;;;108343;1268;22564;-32
2022/12/04 07:00:37;;;;;;;9.80;6.80;;;;;;;;;;108297;1269;22552;-32
2022/12/04 07:03:10;;;;;;;9.50;6.50;;;;;;;;;;108326;1267;22565;-32
2022/12/04 07:05:41;;;;;;;13.80;6.60;;;;;;;;;;108352;1268;22650;-32
2022/12/04 07:08:14;;;;;;;8.60;6.20;;;;;;;;;;108344;1269;22558;-32
2022/12/04 07:10:45;;;;;;;9.20;6.20;;;;;;;;;;108299;1269;24853;-30
2022/12/04 07:13:16;;;;;;;10.20;6.80;;;;;;;;;;108348;1269;22562;-31
2022/12/04 07:15:47;;;;;;;8.90;6.00;;;;;;;;;;108361;1269;22578;-30
2022/12/04 07:18:18;;;;;;;9.40;6.30;;;;;;;;;;108362;1269;22560;-31
2022/12/04 07:20:49;;;;;;;8.60;6.30;;;;;;;;;;108343;1269;25340;-31
2022/12/04 07:23:20;;;;;;;9.20;6.50;;;;;;;;;;108392;1266;22571;-31
2022/12/04 07:25:51;;;;;;;8.40;5.90;;;;;;;;;;108358;1268;22561;-31
2022/12/04 07:28:22;;;;;;;9.80;6.40;;;;;;;;;;108362;1269;22563;-31
2022/12/04 07:30:52;;;;;;;9.90;6.50;;;;;;;;;;108320;1269;22562;-31
2022/12/04 07:33:23;;;;;;;8.50;6.00;;;;;;;;;;108349;1269;22701;-32
2022/12/04 07:35:58;;;;;;;8.70;6.60;;;;;;;;;;108357;1268;22567;-31
2022/12/04 07:38:33;;;;;;;10.10;6.50;;;;;;;;;;108361;1269;22581;-31
2022/12/04 07:41:06;;;;;;;8.30;5.70;;;;;;;;;;108299;1268;22566;-31
2022/12/04 07:43:38;;;;;;;10.60;6.20;;;;;;;;;;108228;1269;22578;-31
2022/12/04 07:46:12;;;;;;;9.60;6.80;;;;;;;;;;108340;1269;22601;-31
2022/12/04 07:48:43;;;;;;;9.30;6.30;;;;;;;;;;108338;1269;24869;-31
2022/12/04 07:51:15;;;;;;;8.50;5.80;;;;;;;;;;108298;1269;23382;-31
2022/12/04 07:53:47;;;;;;;8.30;5.90;;;;;;;;;;108378;1269;22539;-31
2022/12/04 07:56:18;;;;;;;9.10;6.10;;;;;;;;;;108358;1269;22564;-31
2022/12/04 07:58:50;;;;;;;8.80;6.60;;;;;;;;;;108370;1269;22570;-32
2022/12/04 08:01:23;;;;;;;9.50;6.10;;;;;;;;;;108314;1268;23321;-32
2022/12/04 08:03:55;;;;;;;9.10;6.10;;;;;;;;;;108379;1267;22566;-32
2022/12/04 08:06:27;;;;;;;9.00;6.70;;;;;;;;;;108351;1274;22570;-32
2022/12/04 08:08:59;;;;;;;9.00;6.30;;;;;;;;;;108341;1267;22608;-31
2022/12/04 08:11:30;;;;;;;8.90;5.90;;;;;;;;;;108318;1270;22572;-31
2022/12/04 08:14:02;;;;;;;9.50;6.10;;;;;;;;;;108379;1269;22588;-31
2022/12/04 08:16:34;;;;;;;8.60;5.80;;;;;;;;;;108373;1269;24477;-31
2022/12/04 08:19:05;;;;;;;10.30;6.50;;;;;;;;;;108374;1268;22579;-31
2022/12/04 08:21:35;;;;;;;9.90;6.70;;;;;;;;;;108299;1267;22602;-31
2022/12/04 08:24:10;;;;;;;9.50;6.30;;;;;;;;;;108343;1274;24483;-31
2022/12/04 08:26:41;;;;;;;8.50;6.30;;;;;;;;;;108365;1268;22564;-28
2022/12/04 08:29:12;;;;;;;8.70;6.40;;;;;;;;;;108334;1268;22563;-28
2022/12/04 08:31:43;;;;;;;8.80;6.20;;;;;;;;;;108302;1269;23245;-28
2022/12/04 08:34:14;;;;;;;9.40;6.10;;;;;;;;;;108359;1269;22568;-28
2022/12/04 08:36:48;;;;;;;8.60;5.80;;;;;;;;;;108374;1269;22577;-28
2022/12/04 08:39:20;;;;;;;7.90;5.40;;;;;;;;;;108366;1268;22723;-28
2022/12/04 08:41:52;;;;;;;9.20;6.20;;;;;;;;;;108341;1268;22583;-33
2022/12/04 08:44:22;;;;;;;8.10;5.70;;;;;;;;;;108374;1268;22560;-34
2022/12/04 08:46:55;;;;;;;9.00;5.70;;;;;;;;;;108377;1270;22585;-28
2022/12/04 08:49:26;;;;;;;9.30;6.10;;;;;;;;;;108351;1269;22693;-28
2022/12/04 08:51:57;;;;;;;8.30;5.50;;;;;;;;;;108334;1265;25304;-28
2022/12/04 08:54:28;;;;;;;8.10;5.70;;;;;;;;;;108376;1272;22642;-28
2022/12/04 08:57:01;;;;;;;7.70;5.20;;;;;;;;;;108344;1268;22551;-31
2022/12/04 08:59:34;;;;;;;8.40;6.30;;;;;;;;;;108345;1268;22582;-32
2022/12/04 09:02:04;;;;;;;9.40;6.60;;;;;;;;;;108297;1267;24464;-32
2022/12/04 09:04:37;;;;;;;9.80;6.40;;;;;;;;;;108328;1268;22562;-31
2022/12/04 09:07:11;;;;;;;8.10;5.70;;;;;;;;;;108324;1268;25253;-34
2022/12/04 09:09:43;;;;;;;9.20;6.10;;;;;;;;;;108332;1275;22625;-35
2022/12/04 09:12:17;;;;;;;8.70;6.30;;;;;;;;;;108344;1269;25352;-35
2022/12/04 09:14:48;;;;;;;9.30;7.60;;;;;;;;;;108377;1269;22581;-35
2022/12/04 09:17:19;;;;;;;9.50;8.40;;;;;;;;;;108353;1272;22567;-35
2022/12/04 09:19:50;;;;;;;12.70;10.10;;;;;;;;;;108376;1272;22563;-35
2022/12/04 09:22:24;;;;;;;11.50;9.90;;;;;;;;;;108312;1269;22563;-34
2022/12/04 09:24:56;;;;;;;13.30;11.90;;;;;;;;;;108342;1275;22585;-34
2022/12/04 09:27:29;;;;;;;16.70;14.10;;;;;;;;;;108229;1272;22692;-34
2022/12/04 09:29:59;;;;;;;15.40;13.80;;;;;;;;;;108336;1268;22575;-35
2022/12/04 09:32:34;;;;;;;15.60;14.00;;;;;;;;;;108321;1268;22560;-34
2022/12/04 09:35:04;;;;;;;;;;;;;;;;;;108391;1269;22584;-35
2022/12/04 09:37:37;;;;;;;15.60;13.90;;;;;;;;;;108268;1272;22605;-35
2022/12/04 09:40:22;;;;;;;16.70;14.30;;;;;;;;;;108374;1275;22561;-34
2022/12/04 09:42:58;;;;;;;16.00;13.90;;;;;;;;;;108333;1268;25863;-35
2022/12/04 09:45:37;;;;;;;14.60;13.10;;;;;;;;;;108383;1268;22583;-35
2022/12/04 09:48:12;;;;;;;15.30;12.70;;;;;;;;;;108365;1268;22562;-34
2022/12/04 09:50:46;;;;;;;14.30;12.80;;;;;;;;;;108364;1267;22567;-34
2022/12/04 09:53:20;;;;;;;14.70;13.20;;;;;;;;;;108327;1267;22542;-35
2022/12/04 09:55:58;;;;;;;15.80;13.50;;;;;;;;;;108361;1269;22564;-34
2022/12/04 09:58:42;;;;;;;14.60;12.30;;;;;;;;;;108363;1272;22560;-35
2022/12/04 10:01:21;;;;;;;13.80;11.70;;;;;;;;;;108375;1268;22558;-35
2022/12/04 10:03:54;;;;;;;14.30;12.00;;;;;;;;;;108311;1267;22562;-34
2022/12/04 10:06:29;;;;;;;13.40;12.00;;;;;;;;;;108343;1268;24560;-30
2022/12/04 10:09:09;;;;;;;13.80;11.90;;;;;;;;;;108383;1269;22616;-31
2022/12/04 10:11:49;;;;;;;13.60;11.30;;;;;;;;;;108345;1267;22837;-31
2022/12/04 10:14:30;;;;;;;12.50;10.70;;;;;;;;;;108342;1269;22778;-31
2022/12/04 10:17:18;;;;;;;13.60;11.40;;;;;;;;;;108357;1269;22562;-34
2022/12/04 10:19:53;;;;;;;13.90;11.30;;;;;;;;;;108351;1269;22591;-35
2022/12/04 10:22:33;;;;;;;14.40;12.90;;;;;;;;;;108381;1269;22685;-35
2022/12/04 10:25:13;;;;;;;13.10;11.10;;;;;;;;;;108465;1272;22642;-35
2022/12/04 10:27:51;;;;;;;11.90;10.50;;;;;;;;;;108380;1269;22560;-35
2022/12/04 10:30:24;;;;;;;12.10;10.10;;;;;;;;;;108373;1268;22557;-35
2022/12/04 10:33:01;;;;;;;12.00;10.50;;;;;;;;;;108347;1269;22646;-33
2022/12/04 10:35:36;;;;;;;13.00;10.70;;;;;;;;;;108372;1268;22568;-35
2022/12/04 10:38:26;;;;;;;11.80;10.60;;;;;;;;;;108254;1271;22606;-35
2022/12/04 10:41:03;;;;;;;11.50;9.40;;;;;;;;;;108387;1269;22575;-34
2022/12/04 10:43:45;;;;;;;12.80;10.40;;;;;;;;;;108336;1269;22570;-35
2022/12/04 10:46:21;;;;;;;12.30;10.30;;;;;;;;;;108396;1268;22595;-35
2022/12/04 10:48:55;;;;;;;13.70;10.00;;;;;;;;;;108383;1269;22616;-35
2022/12/04 10:51:26;;;;;;;11.30;9.50;;;;;;;;;;108443;1272;22649;-38
2022/12/04 10:53:58;;;;;;;11.10;9.70;;;;;;;;;;108334;1267;22569;-35
2022/12/04 10:56:28;;;;;;;12.60;10.40;;;;;;;;;;108375;1269;22628;-35
2022/12/04 10:59:02;;;;;;;11.10;9.70;;;;;;;;;;108365;1268;22570;-34
2022/12/04 11:01:35;;;;;;;10.60;8.90;;;;;;;;;;108401;1269;25405;-35
2022/12/04 11:04:09;;;;;;;11.60;9.20;;;;;;;;;;108339;1272;22564;-35
2022/12/04 11:06:45;;;;;;;12.50;9.40;;;;;;;;;;108356;1272;22582;-35
2022/12/04 11:09:22;;;;;;;11.70;8.90;;;;;;;;;;108370;1269;22579;-34
2022/12/04 11:12:15;;;;;;;12.10;9.20;;;;;;;;;;108368;1275;22564;-35
2022/12/04 11:14:48;;;;;;;11.70;9.40;;;;;;;;;;108355;1275;22573;-35
2022/12/04 11:17:20;;;;;;;11.10;8.90;;;;;;;;;;108382;1269;25710;-35
2022/12/04 11:20:04;;;;;;;11.00;8.70;;;;;;;;;;108401;1272;22572;-34
2022/12/04 11:22:38;;;;;;;10.20;8.70;;;;;;;;;;108379;1272;22564;-34
2022/12/04 11:25:20;;;;;;;10.00;8.40;;;;;;;;;;108410;1268;22785;-34
2022/12/04 11:28:00;;;;;;;10.70;8.80;;;;;;;;;;108476;1268;22569;-34
2022/12/04 11:30:34;;;;;;;11.40;8.50;;;;;;;;;;108507;1269;22870;-34
2022/12/04 11:33:22;;;;;;;10.30;8.30;;;;;;;;;;108367;1267;22564;-34
2022/12/04 11:35:56;;;;;;;10.30;8.20;;;;;;;;;;108349;1273;22719;-35
2022/12/04 11:38:25;;;;;;;;;;;;;;;;;;108378;1269;22543;-36
2022/12/04 11:41:00;;;;;;;9.40;8.20;;;;;;;;;;108394;1269;25272;-34
2022/12/04 11:43:33;;;;;;;10.10;8.00;;;;;;;;;;108449;1269;22554;-36
2022/12/04 11:46:15;;;;;;;9.80;8.10;;;;;;;;;;108323;1274;22575;-34
2022/12/04 11:48:50;;;;;;;10.00;7.80;;;;;;;;;;108363;1267;22568;-33
2022/12/04 11:51:37;;;;;;;10.20;8.20;;;;;;;;;;108323;1268;22560;-34
2022/12/04 11:54:16;;;;;;;10.00;8.20;;;;;;;;;;108353;1275;23927;-34
2022/12/04 11:57:01;;;;;;;9.60;8.20;;;;;;;;;;108322;1272;25393;-36
2022/12/04 11:59:53;;;;;;;10.20;8.50;;;;;;;;;;108397;1269;22624;-35
2022/12/04 12:02:41;;;;;;;10.80;8.50;;;;;;;;;;108348;1268;22560;-35
2022/12/04 12:05:39;;;;;;;9.80;8.30;;;;;;;;;;108304;1275;25272;-35
2022/12/04 12:08:18;;;;;;;9.70;8.00;;;;;;;;;;108363;1274;22723;-35
2022/12/04 12:10:56;;;;;;;9.70;8.40;;;;;;;;;;108345;1274;24669;-35
2022/12/04 12:13:34;;;;;;;10.10;8.20;;;;;;;;;;108351;1268;22562;-35
2022/12/04 12:16:11;;;;;;;10.30;8.30;;;;;;;;;;108325;1269;25262;-35
2022/12/04 12:18:57;;;;;;;9.50;8.30;;;;;;;;;;108352;1269;22567;-34
2022/12/04 12:21:33;;;;;;;10.00;7.90;;;;;;;;;;108404;1275;25343;-34
2022/12/04 12:24:26;;;;;;;9.80;8.00;;;;;;;;;;108377;1269;22565;-35
2022/12/04 12:27:08;;;;;;;9.30;7.80;;;;;;;;;;108338;1274;22608;-35
2022/12/04 12:29:47;;;;;;;9.80;7.70;;;;;;;;;;108385;1268;25403;-37
2022/12/04 12:32:38;;;;;;;9.60;8.20;;;;;;;;;;108343;1267;22569;-35
2022/12/04 12:35:20;;;;;;;10.90;7.70;;;;;;;;;;108264;1271;22559;-35
2022/12/04 12:37:54;;;;;;;9.30;8.00;;;;;;;;;;108360;1275;22963;-35
2022/12/04 12:40:36;;;;;;;10.20;7.80;;;;;;;;;;108367;1272;26487;-35
2022/12/04 12:43:11;;;;;;;9.90;7.80;;;;;;;;;;108351;1275;22559;-35
2022/12/04 12:45:51;;;;;;;10.30;8.00;;;;;;;;;;108344;1272;25421;-34
2022/12/04 12:48:34;;;;;;;11.10;8.30;;;;;;;;;;108371;1269;24648;-35
2022/12/04 12:51:12;;;;;;;10.70;8.10;;;;;;;;;;108377;1275;22637;-35
2022/12/04 12:53:50;;;;;;;9.60;8.40;;;;;;;;;;108336;1275;22764;-35
2022/12/04 12:56:37;;;;;;;10.10;8.20;;;;;;;;;;108308;1269;22564;-35
2022/12/04 12:59:12;;;;;;;11.70;9.70;;;;;;;;;;108258;1275;22611;-35
2022/12/04 13:01:49;;;;;;;10.30;8.20;;;;;;;;;;108389;1269;22642;-35
2022/12/04 13:04:25;;;;;;;10.60;8.70;;;;;;;;;;108391;1272;22643;-34
2022/12/04 13:07:22;;;;;;;10.40;8.50;;;;;;;;;;108319;1268;22633;-35
2022/12/04 13:10:00;;;;;;;10.50;8.10;;;;;;;;;;108514;1275;22569;-35
2022/12/04 13:12:44;;;;;;;13.10;8.80;;;;;;;;;;108377;1272;22562;-34
2022/12/04 13:16:35;;;;;;;13.10;8.10;;;;;;;;;;104621;1310;549421;-33
2022/12/04 13:19:18;;;;;;;12.70;8.70;;;;;;;;;;107694;1278;25745;-32
2022/12/04 13:22:04;;;;;;;11.10;8.80;;;;;;;;;;107796;1278;22887;-30
2022/12/04 13:25:13;;;;;;;12.90;8.60;;;;;;;;;;107767;1276;24491;-31
2022/12/04 13:27:57;;;;;;;16.30;8.90;;;;;;;;;;107965;1280;22663;-30
2022/12/04 13:30:40;;;;;;;9.70;8.20;;;;;;;;;;107733;1275;116653;-32
2022/12/04 13:33:57;;;;;;;12.80;8.50;;;;;;;;;;107837;1274;25678;-32
2022/12/04 13:37:07;;;;;;;9.70;7.50;;;;;;;;;;107804;1268;25393;-32
2022/12/04 13:40:34;;;;;;;10.90;8.20;;;;;;;;;;107882;1281;25236;-32
2022/12/04 13:43:29;;;;;;;11.00;8.30;;;;;;;;;;108075;1263;25440;-32
2022/12/04 13:46:06;;;;;;;9.30;7.60;;;;;;;;;;108025;1269;24151;-32
2022/12/04 13:48:42;;;;;;;10.30;8.20;;;;;;;;;;107933;1272;22567;-32
2022/12/04 13:51:38;;;;;;;10.20;8.20;;;;;;;;;;107978;1274;25412;-32
2022/12/04 13:54:33;;;;;;;10.90;8.10;;;;;;;;;;107976;1271;24841;-32
2022/12/04 13:57:23;;;;;;;10.10;8.20;;;;;;;;;;107988;1274;23124;-32
2022/12/04 14:00:24;;;;;;;10.50;8.20;;;;;;;;;;108098;1269;22571;-33
2022/12/04 14:03:01;;;;;;;10.80;8.40;;;;;;;;;;108075;1269;23355;-31
2022/12/04 14:05:43;;;;;;;10.10;8.40;;;;;;;;;;108111;1269;25765;-33
2022/12/04 14:08:28;;;;;;;9.80;8.30;;;;;;;;;;108012;1268;22599;-32
2022/12/04 14:11:05;;;;;;;11.20;8.60;;;;;;;;;;108090;1276;23586;-32
2022/12/04 14:13:49;;;;;;;11.10;8.60;;;;;;;;;;107927;1271;24682;-32
2022/12/04 14:16:29;;;;;;;10.80;8.40;;;;;;;;;;107938;1274;25144;-32
2022/12/04 14:19:04;;;;;;;10.00;8.10;;;;;;;;;;108116;1269;29042;-32
2022/12/04 14:21:44;;;;;;;11.30;7.80;;;;;;;;;;108120;1269;25629;-32
2022/12/04 14:24:31;;;;;;;11.00;8.50;;;;;;;;;;108074;1268;25073;-30
2022/12/04 14:27:33;;;;;;;10.40;8.50;;;;;;;;;;107994;1269;24577;-30
2022/12/04 14:30:18;;;;;;;10.40;8.30;;;;;;;;;;108034;1271;23210;-30
2022/12/04 14:32:55;;;;;;;9.90;8.20;;;;;;;;;;108054;1271;24651;-30
2022/12/04 14:35:29;;;;;;;10.90;8.60;;;;;;;;;;108058;1274;22629;-30
2022/12/04 14:38:06;;;;;;;11.40;8.40;;;;;;;;;;107996;1269;24518;-30
2022/12/04 14:40:45;;;;;;;12.20;8.80;;;;;;;;;;108059;1272;26545;-30
2022/12/04 14:43:22;;;;;;;11.00;8.20;;;;;;;;;;108048;1268;26395;-29
2022/12/04 14:46:00;;;;;;;11.90;8.20;;;;;;;;;;108063;1272;24624;-29
2022/12/04 14:48:42;;;;;;;10.00;8.40;;;;;;;;;;108033;1269;25001;-29
2022/12/04 14:51:21;;;;;;;10.50;8.30;;;;;;;;;;108031;1276;23063;-30
2022/12/04 14:54:03;;;;;;;9.80;7.70;;;;;;;;;;108037;1271;22566;-30
2022/12/04 14:56:50;;;;;;;9.00;7.80;;;;;;;;;;108020;1271;22563;-30
2022/12/04 14:59:28;;;;;;;10.30;7.70;;;;;;;;;;107997;1276;24898;-30
2022/12/04 15:02:01;;;;;;;9.50;7.70;;;;;;;;;;108459;1262;24782;-31
2022/12/04 15:04:36;;;;;;;9.90;7.90;;;;;;;;;;108438;1265;22560;-30
2022/12/04 15:07:10;;;;;;;10.70;7.80;;;;;;;;;;108484;1269;22976;-30
2022/12/04 15:12:53;;;;;;;9.70;7.90;;;;;;;;;;108307;1268;26234;-30
2022/12/04 15:15:29;;;;;;;9.60;7.10;;;;;;;;;;108316;1272;24817;-30
2022/12/04 15:18:13;;;;;;;9.80;7.50;;;;;;;;;;108337;1272;23175;-30
2022/12/04 15:20:58;;;;;;;8.80;7.50;;;;;;;;;;108473;1265;24006;-30
2022/12/04 15:23:36;;;;;;;8.50;7.10;;;;;;;;;;108492;1269;24105;-30
2022/12/04 15:26:13;;;;;;;9.20;7.00;;;;;;;;;;108453;1265;25997;-32
2022/12/04 15:28:50;;;;;;;9.30;7.70;;;;;;;;;;108386;1267;25540;-31
2022/12/04 15:31:28;;;;;;;8.80;7.20;;;;;;;;;;108337;1265;25861;-31